createdAt,value
2019-05-14T00:02:12.252Z,99.90
2019-05-14T00:04:42.317Z,99.90
2019-05-14T00:07:11.764Z,99.90
2019-05-14T00:09:41.410Z,99.90
2019-05-14T00:12:11.428Z,99.90
2019-05-14T00:14:43.308Z,99.90
2019-05-14T00:17:11.432Z,99.90
2019-05-14T00:19:41.632Z,99.90
2019-05-14T00:22:11.571Z,99.90
2019-05-14T00:24:41.580Z,99.90
2019-05-14T00:27:11.511Z,99.90
2019-05-14T00:29:41.692Z,99.90
2019-05-14T00:32:11.228Z,99.90
2019-05-14T00:34:42.130Z,99.90
2019-05-14T00:37:11.570Z,99.90
2019-05-14T00:39:41.584Z,99.90
2019-05-14T00:42:12.573Z,99.90
2019-05-14T00:44:53.573Z,99.90
2019-05-14T00:47:11.299Z,99.90
2019-05-14T00:49:42.216Z,99.90
2019-05-14T00:52:11.761Z,99.90
2019-05-14T00:54:42.008Z,99.90
2019-05-14T00:57:11.798Z,99.90
2019-05-14T00:59:41.649Z,99.90
2019-05-14T01:02:11.436Z,99.90
2019-05-14T01:04:42.524Z,99.90
2019-05-14T01:07:11.951Z,99.90
2019-05-14T01:09:42.142Z,99.90
2019-05-14T01:12:12.183Z,99.90
2019-05-14T01:14:42.361Z,99.90
2019-05-14T01:17:11.415Z,99.90
2019-05-14T01:19:42.178Z,99.90
2019-05-14T01:22:12.527Z,99.90
2019-05-14T01:24:41.704Z,99.90
2019-05-14T01:27:12.364Z,99.90
2019-05-14T01:29:42.421Z,99.90
2019-05-14T01:32:11.688Z,99.90
2019-05-14T01:34:41.971Z,99.90
2019-05-14T01:37:11.642Z,99.90
2019-05-14T01:39:41.795Z,99.90
2019-05-14T01:42:12.475Z,99.90
2019-05-14T01:44:41.561Z,99.90
2019-05-14T01:47:12.383Z,99.90
2019-05-14T01:49:42.800Z,99.90
2019-05-14T01:52:11.211Z,99.90
2019-05-14T01:54:42.444Z,99.90
2019-05-14T01:57:11.475Z,99.90
2019-05-14T01:59:42.598Z,99.90
2019-05-14T02:02:11.561Z,99.90
2019-05-14T02:04:43.851Z,99.90
2019-05-14T02:07:15.911Z,99.90
2019-05-14T02:09:43.303Z,99.90
2019-05-14T02:12:12.147Z,99.90
2019-05-14T02:14:42.502Z,99.90
2019-05-14T02:17:12.374Z,99.90
2019-05-14T02:19:42.550Z,99.90
2019-05-14T02:22:14.321Z,99.90
2019-05-14T02:24:42.855Z,99.90
2019-05-14T02:27:12.492Z,99.90
2019-05-14T02:29:41.777Z,99.90
2019-05-14T02:32:11.105Z,99.90
2019-05-14T02:34:40.609Z,99.90
2019-05-14T02:37:09.742Z,99.90
2019-05-14T02:39:41.056Z,99.90
2019-05-14T02:42:09.374Z,99.90
2019-05-14T02:44:40.642Z,99.90
2019-05-14T02:47:09.965Z,99.90
2019-05-14T02:49:39.725Z,99.90
2019-05-14T02:52:09.971Z,99.90
2019-05-14T02:54:40.485Z,99.90
2019-05-14T02:57:10.401Z,99.90
2019-05-14T02:59:39.907Z,99.90
2019-05-14T03:02:09.883Z,99.90
2019-05-14T03:04:39.570Z,99.90
2019-05-14T03:07:10.840Z,99.90
2019-05-14T03:09:40.370Z,99.90
2019-05-14T03:12:10.317Z,99.90
2019-05-14T03:14:39.828Z,99.90
2019-05-14T03:17:10.446Z,99.90
2019-05-14T03:19:40.831Z,99.90
2019-05-14T03:22:10.280Z,99.90
2019-05-14T03:24:39.838Z,99.90
2019-05-14T03:27:09.706Z,99.90
2019-05-14T03:29:39.875Z,99.90
2019-05-14T03:32:12.628Z,99.90
2019-05-14T03:34:43.333Z,99.90
2019-05-14T03:37:13.096Z,99.90
2019-05-14T03:39:39.843Z,99.90
2019-05-14T03:42:09.554Z,99.90
2019-05-14T03:44:39.966Z,99.90
2019-05-14T03:47:10.216Z,99.90
2019-05-14T03:49:40.006Z,99.90
2019-05-14T03:52:09.643Z,99.90
2019-05-14T03:54:40.709Z,99.90
2019-05-14T03:57:09.860Z,99.90
2019-05-14T03:59:40.400Z,99.90
2019-05-14T04:02:10.323Z,99.90
2019-05-14T04:04:39.492Z,99.90
2019-05-14T04:07:10.784Z,99.90
2019-05-14T04:09:42.154Z,99.90
2019-05-14T04:12:13.484Z,99.90
2019-05-14T04:14:45.412Z,99.90
2019-05-14T04:17:25.892Z,99.90
2019-05-14T04:19:49.534Z,99.90
2019-05-14T04:22:21.555Z,99.90
2019-05-14T04:24:52.037Z,99.90
2019-05-14T04:27:21.938Z,99.90
2019-05-14T04:29:53.470Z,99.90
2019-05-14T04:32:22.133Z,99.90
2019-05-14T04:34:51.051Z,99.90
2019-05-14T04:37:20.278Z,99.90
2019-05-14T04:39:50.439Z,99.90
2019-05-14T04:42:20.276Z,99.90
2019-05-14T04:44:50.199Z,99.90
2019-05-14T04:47:31.348Z,99.90
2019-05-14T04:49:50.607Z,99.90
2019-05-14T04:52:20.443Z,99.90
2019-05-14T04:54:50.061Z,99.90
2019-05-14T04:57:21.364Z,99.90
2019-05-14T04:59:49.731Z,99.90
2019-05-14T05:02:19.730Z,99.90
2019-05-14T05:04:50.796Z,99.90
2019-05-14T05:07:19.359Z,99.90
2019-05-14T05:56:09.005Z,99.90
2019-05-14T05:58:39.444Z,99.90
2019-05-14T06:01:09.616Z,99.90
2019-05-14T06:03:39.239Z,99.90
2019-05-14T09:44:29.353Z,91.40
2019-05-14T09:46:59.370Z,91.90
2019-05-14T09:49:28.333Z,92.10
2019-05-14T09:51:58.360Z,91.80
2019-05-14T09:54:28.745Z,90.40
2019-05-14T09:56:59.160Z,90.40
2019-05-14T09:59:28.093Z,91.10
2019-05-14T10:01:58.552Z,91.50
2019-05-14T10:04:26.933Z,91.90
2019-05-14T10:06:55.468Z,91.50
2019-05-14T10:09:23.932Z,87.00
2019-05-14T10:11:52.476Z,88.50
2019-05-14T10:14:20.945Z,87.50
2019-05-14T10:16:49.395Z,90.40
2019-05-14T10:19:19.207Z,90.50
2019-05-14T10:21:49.348Z,89.60
2019-05-14T10:24:18.768Z,84.90
2019-05-14T10:26:48.983Z,86.00
2019-05-14T10:29:19.123Z,87.50
2019-05-14T10:31:48.588Z,86.50
2019-05-14T10:34:19.194Z,88.20
2019-05-14T10:36:47.487Z,89.50
2019-05-14T10:39:19.156Z,88.30
2019-05-14T10:41:47.506Z,85.90
2019-05-14T10:44:18.499Z,86.70
2019-05-14T10:46:46.233Z,83.60
2019-05-14T10:49:22.702Z,83.60
2019-05-14T10:51:44.901Z,85.50
2019-05-14T10:54:22.277Z,86.00
2019-05-14T10:56:43.653Z,85.50
2019-05-14T10:59:12.928Z,85.10
2019-05-14T11:01:41.392Z,84.00
2019-05-14T11:04:09.988Z,83.70
2019-05-14T11:06:39.764Z,81.40
2019-05-14T11:09:09.051Z,83.70
2019-05-14T11:11:38.233Z,82.50
2019-05-14T11:14:08.792Z,83.30
2019-05-14T11:16:41.534Z,78.50
2019-05-14T11:19:09.382Z,79.80
2019-05-14T11:21:39.217Z,79.80
2019-05-14T11:24:09.637Z,76.90
2019-05-14T11:26:39.138Z,76.70
2019-05-14T11:29:07.893Z,76.60
2019-05-14T11:31:38.881Z,75.40
2019-05-14T11:34:08.298Z,75.70
2019-05-14T11:36:38.869Z,75.80
2019-05-14T11:39:09.281Z,76.40
2019-05-14T11:41:38.864Z,75.00
2019-05-14T11:44:09.138Z,76.00
2019-05-14T11:46:50.382Z,71.60
2019-05-14T11:49:08.856Z,72.80
2019-05-14T11:51:59.436Z,74.30
2019-05-14T11:54:09.434Z,74.10
2019-05-14T11:56:41.944Z,71.50
2019-05-14T11:59:08.628Z,70.50
2019-05-14T12:01:39.209Z,72.20
2019-05-14T12:04:08.879Z,74.00
2019-05-14T12:06:39.056Z,73.80
2019-05-14T12:09:11.915Z,73.80
2019-05-14T12:11:38.754Z,69.70
2019-05-14T12:14:08.911Z,71.00
2019-05-14T12:16:40.180Z,71.60
2019-05-14T12:19:11.630Z,71.10
2019-05-14T12:21:39.779Z,72.50
2019-05-14T12:24:13.408Z,74.00
2019-05-14T12:26:38.764Z,73.20
2019-05-14T12:29:09.636Z,70.80
2019-05-14T12:31:38.620Z,69.50
2019-05-14T12:34:07.387Z,71.20
2019-05-14T12:36:38.661Z,70.90
2019-05-14T12:39:09.664Z,71.40
2019-05-14T12:41:38.359Z,72.50
2019-05-14T12:44:09.355Z,72.40
2019-05-14T12:46:37.398Z,72.10
2019-05-14T12:49:05.992Z,72.30
2019-05-14T12:51:38.243Z,70.40
2019-05-14T12:54:04.859Z,70.80
2019-05-14T12:56:33.331Z,70.20
2019-05-14T12:59:01.803Z,69.70
2019-05-14T13:01:30.365Z,69.90
2019-05-14T13:03:59.323Z,69.60
2019-05-14T13:06:29.347Z,71.40
2019-05-14T13:08:58.605Z,71.10
2019-05-14T13:11:27.392Z,66.40
2019-05-14T13:13:58.354Z,68.80
2019-05-14T13:16:28.331Z,70.20
2019-05-14T13:18:56.336Z,70.20
2019-05-14T13:21:24.810Z,71.10
2019-05-14T13:23:53.507Z,70.60
2019-05-14T13:26:22.933Z,71.60
2019-05-14T13:28:51.402Z,65.10
2019-05-14T13:31:20.423Z,66.10
2019-05-14T13:33:49.129Z,67.80
2019-05-14T13:36:20.411Z,67.30
2019-05-14T13:38:49.016Z,68.30
2019-05-14T13:41:19.268Z,67.10
2019-05-14T13:43:50.397Z,67.10
2019-05-14T13:46:18.961Z,65.90
2019-05-14T13:48:49.876Z,68.20
2019-05-14T13:51:19.513Z,68.20
2019-05-14T13:53:49.836Z,68.40
2019-05-14T13:56:18.891Z,69.00
2019-05-14T13:58:48.837Z,68.90
2019-05-14T14:01:19.395Z,68.30
2019-05-14T14:04:02.653Z,66.90
2019-05-14T14:06:20.709Z,66.90
2019-05-14T14:08:49.015Z,66.90
2019-05-14T14:11:19.433Z,68.30
2019-05-14T14:13:48.895Z,67.50
2019-05-14T14:16:19.720Z,66.70
2019-05-14T14:18:50.150Z,66.50
2019-05-14T14:21:19.666Z,67.20
2019-05-14T14:23:49.525Z,68.10
2019-05-14T14:26:18.638Z,66.60
2019-05-14T14:28:49.460Z,67.00
2019-05-14T14:31:18.858Z,65.10
2019-05-14T14:33:48.653Z,65.50
2019-05-14T14:36:20.028Z,66.90
2019-05-14T14:38:49.561Z,68.10
2019-05-14T14:41:19.343Z,67.40
2019-05-14T14:43:53.883Z,66.80
2019-05-14T14:46:19.579Z,66.70
2019-05-14T14:48:49.294Z,66.90
2019-05-14T14:51:19.573Z,67.10
2019-05-14T14:53:59.375Z,66.60
2019-05-14T14:56:19.056Z,64.70
2019-05-14T14:58:49.385Z,65.30
2019-05-14T15:01:19.572Z,66.50
2019-05-14T15:03:49.671Z,66.80
2019-05-14T15:06:18.716Z,67.10
2019-05-14T15:08:49.644Z,66.70
2019-05-14T15:11:18.521Z,66.40
2019-05-14T15:13:48.263Z,66.30
2019-05-14T15:16:19.698Z,65.80
2019-05-14T15:18:49.743Z,67.00
2019-05-14T15:21:19.109Z,66.40
2019-05-14T15:24:02.997Z,66.10
2019-05-14T15:26:19.276Z,66.10
2019-05-14T15:28:49.499Z,64.80
2019-05-14T15:31:19.220Z,65.50
2019-05-14T15:33:50.599Z,65.60
2019-05-14T15:36:19.790Z,65.80
2019-05-14T15:38:48.697Z,66.70
2019-05-14T15:41:20.265Z,67.20
2019-05-14T15:43:47.584Z,65.40
2019-05-14T15:46:18.391Z,65.90
2019-05-14T15:48:48.711Z,65.30
2019-05-14T15:51:18.842Z,66.40
2019-05-14T15:54:05.590Z,66.60
2019-05-14T15:56:18.775Z,67.00
2019-05-14T15:58:47.098Z,67.70
2019-05-14T16:01:15.548Z,66.80
2019-05-14T16:03:44.102Z,66.30
2019-05-14T16:06:12.696Z,66.30
2019-05-14T16:08:41.235Z,66.10
2019-05-14T16:11:11.413Z,66.10
2019-05-14T16:13:40.233Z,65.70
2019-05-14T16:16:10.610Z,66.20
2019-05-14T16:18:39.021Z,65.80
2019-05-14T16:21:10.271Z,67.00
2019-05-14T16:23:38.776Z,66.10
2019-05-14T16:26:08.912Z,66.30
2019-05-14T16:28:39.613Z,66.30
2019-05-14T16:31:08.562Z,66.90
2019-05-14T16:33:40.489Z,65.90
2019-05-14T16:36:08.845Z,65.70
2019-05-14T16:38:39.441Z,67.00
2019-05-14T16:41:08.335Z,65.50
2019-05-14T16:43:39.543Z,65.70
2019-05-14T16:46:09.658Z,66.00
2019-05-14T16:48:39.446Z,66.00
2019-05-14T16:51:08.924Z,65.20
2019-05-14T16:53:40.026Z,66.10
2019-05-14T16:56:08.486Z,67.40
2019-05-14T16:58:38.617Z,66.80
2019-05-14T17:01:09.648Z,66.20
2019-05-14T17:03:39.759Z,65.10
2019-05-14T17:06:07.720Z,66.20
2019-05-14T17:08:36.182Z,67.00
2019-05-14T17:11:04.630Z,65.90
2019-05-14T17:13:33.122Z,65.50
2019-05-14T17:16:01.615Z,65.20
2019-05-14T17:18:30.185Z,66.10
2019-05-14T17:20:59.586Z,66.10
2019-05-14T17:23:28.460Z,66.10
2019-05-14T17:25:58.008Z,65.90
2019-05-14T17:28:28.671Z,64.50
2019-05-14T17:30:56.839Z,64.20
2019-05-14T17:33:25.350Z,64.60
2019-05-14T17:35:53.810Z,64.90
2019-05-14T17:38:22.444Z,65.50
2019-05-14T17:40:50.935Z,65.50
2019-05-14T17:43:23.113Z,65.50
2019-05-14T17:45:49.677Z,65.60
2019-05-14T17:48:18.378Z,66.60
2019-05-14T17:50:49.115Z,66.80
2019-05-14T17:53:18.359Z,65.80
2019-05-14T17:55:50.145Z,65.80
2019-05-14T17:58:18.867Z,66.70
2019-05-14T18:00:47.588Z,67.20
2019-05-14T18:03:18.389Z,65.90
2019-05-14T18:05:46.895Z,65.80
2019-05-14T18:08:15.389Z,65.90
2019-05-14T18:10:43.999Z,66.70
2019-05-14T18:13:12.556Z,67.40
2019-05-14T18:15:41.159Z,65.60
2019-05-14T18:18:09.688Z,66.00
2019-05-14T18:20:39.405Z,66.10
2019-05-14T18:23:11.593Z,66.50
2019-05-14T18:25:38.999Z,66.10
2019-05-14T18:28:09.298Z,66.20
2019-05-14T18:30:38.941Z,66.90
2019-05-14T18:33:07.977Z,66.80
2019-05-14T18:35:45.235Z,66.60
2019-05-14T18:38:08.256Z,67.30
2019-05-14T18:40:36.881Z,67.50
2019-05-14T18:43:05.502Z,67.20
2019-05-14T18:45:35.605Z,67.30
2019-05-14T18:48:04.096Z,67.80
2019-05-14T18:50:32.571Z,67.60
2019-05-14T18:53:01.046Z,67.80
2019-05-14T18:55:29.638Z,67.40
2019-05-14T18:57:59.312Z,68.60
2019-05-14T19:00:29.433Z,69.30
2019-05-14T19:02:58.259Z,69.60
2019-05-14T19:05:29.199Z,69.20
2019-05-14T19:07:59.134Z,69.20
2019-05-14T19:10:28.083Z,69.20
2019-05-14T19:12:58.803Z,69.80
2019-05-14T19:15:28.716Z,70.30
2019-05-14T19:17:58.717Z,70.70
2019-05-14T19:20:28.268Z,69.70
2019-05-14T19:22:56.899Z,70.80
2019-05-14T19:25:25.372Z,69.80
2019-05-14T19:27:53.823Z,70.20
2019-05-14T19:30:22.276Z,70.60
2019-05-14T19:32:50.754Z,71.00
2019-05-14T19:35:19.395Z,71.10
2019-05-14T19:37:48.730Z,71.80
2019-05-14T19:40:18.939Z,71.80
2019-05-14T19:42:48.463Z,71.10
2019-05-14T19:45:17.522Z,71.60
2019-05-14T19:47:45.994Z,71.30
2019-05-14T19:50:15.597Z,71.60
2019-05-14T19:52:44.063Z,71.30
2019-05-14T19:55:13.521Z,72.10
2019-05-14T19:57:42.085Z,72.20
2019-05-14T20:00:11.108Z,71.50
2019-05-14T20:02:39.570Z,72.10
2019-05-14T20:05:09.154Z,72.30
2019-05-14T20:07:38.638Z,72.40
2019-05-14T20:10:08.721Z,72.20
2019-05-14T20:12:39.135Z,72.50
2019-05-14T20:15:09.421Z,73.50
2019-05-14T20:17:38.720Z,73.70
2019-05-14T20:20:09.101Z,73.00
2019-05-14T20:22:39.364Z,73.20
2019-05-14T20:25:09.874Z,73.60
2019-05-14T20:27:39.117Z,73.90
2019-05-14T20:30:10.267Z,74.40
2019-05-14T20:32:38.795Z,75.60
2019-05-14T20:35:09.300Z,74.80
2019-05-14T20:37:38.781Z,74.80
2019-05-14T20:40:08.547Z,74.70
2019-05-14T20:42:39.027Z,75.10
2019-05-14T20:45:08.367Z,75.80
2019-05-14T20:47:39.146Z,76.70
2019-05-14T20:50:08.912Z,77.00
2019-05-14T20:52:37.827Z,77.50
2019-05-14T20:55:09.565Z,78.00
2019-05-14T20:57:38.705Z,78.00
2019-05-14T21:00:11.362Z,79.10
2019-05-14T21:02:39.684Z,79.90
2019-05-14T21:05:13.571Z,79.70
2019-05-14T21:07:38.880Z,80.70
2019-05-14T21:10:08.195Z,81.00
2019-05-14T21:12:39.143Z,81.20
2019-05-14T21:15:08.942Z,82.00
2019-05-14T21:17:38.562Z,83.10
2019-05-14T21:20:09.127Z,82.80
2019-05-14T21:22:40.227Z,83.10
2019-05-14T21:25:11.210Z,83.90
2019-05-14T21:27:48.010Z,83.80
2019-05-14T21:30:09.486Z,84.80
2019-05-14T21:32:41.971Z,85.10
2019-05-14T21:35:08.514Z,85.30
2019-05-14T21:37:39.450Z,85.90
2019-05-14T21:40:09.193Z,86.20
2019-05-14T21:42:38.554Z,86.70
2019-05-14T21:45:09.934Z,87.00
2019-05-14T21:47:38.742Z,88.50
2019-05-14T21:50:09.054Z,88.30
2019-05-14T21:52:41.783Z,88.80
2019-05-14T21:55:09.246Z,90.00
2019-05-14T21:57:38.380Z,89.80
2019-05-14T22:00:23.161Z,90.10
2019-05-14T22:02:51.810Z,90.70
2019-05-14T22:05:20.387Z,91.30
2019-05-14T22:07:48.982Z,91.60
2019-05-14T22:10:19.146Z,92.20
2019-05-14T22:12:48.747Z,92.50
2019-05-14T22:15:18.553Z,92.70
2019-05-14T22:17:49.256Z,93.20
2019-05-14T22:20:19.196Z,93.90
2019-05-14T22:22:48.558Z,94.60
2019-05-14T22:25:18.959Z,95.30
2019-05-14T22:27:48.383Z,95.50
2019-05-14T22:30:18.337Z,95.50
2019-05-14T22:32:46.994Z,96.00
2019-05-14T22:35:15.775Z,96.90
2019-05-14T22:37:44.350Z,97.20
2019-05-14T22:40:13.279Z,97.90
2019-05-14T22:42:41.854Z,97.60
2019-05-14T22:45:10.561Z,97.90
2019-05-14T22:47:40.387Z,97.90
2019-05-14T22:50:09.735Z,98.70
2019-05-14T22:52:38.789Z,99.00
2019-05-14T22:55:08.214Z,99.20
2019-05-14T22:57:39.245Z,99.80
2019-05-14T23:00:09.451Z,99.90
2019-05-14T23:02:38.376Z,99.90
2019-05-14T23:05:08.312Z,99.90
2019-05-14T23:07:38.392Z,99.90
2019-05-14T23:10:09.053Z,99.90
2019-05-14T23:12:38.631Z,99.90
2019-05-14T23:15:08.250Z,99.90
2019-05-14T23:17:38.915Z,99.90
2019-05-14T23:20:09.154Z,99.90
2019-05-14T23:22:39.051Z,99.90
2019-05-14T23:25:08.942Z,99.90
2019-05-14T23:27:39.030Z,99.90
2019-05-14T23:30:08.467Z,99.90
2019-05-14T23:32:38.368Z,99.90
2019-05-14T23:35:08.011Z,99.90
2019-05-14T23:37:36.650Z,99.90
2019-05-14T23:40:08.577Z,99.90
2019-05-14T23:42:39.369Z,99.90
2019-05-14T23:45:08.188Z,99.90
2019-05-14T23:47:38.280Z,99.90
2019-05-14T23:50:08.186Z,99.90
2019-05-14T23:52:38.794Z,99.90
2019-05-14T23:55:08.535Z,99.90
2019-05-14T23:57:37.342Z,99.90
